Time;durP1;ratioP1;P1;durP2;ratioP2;P2;SDS_P1;SDS_P2;PMS_P1;PMS_P2;Temp;Humidity;BMP_temperature;BMP_pressure;BME280_temperature;BME280_humidity;BME280_pressure;Samples;Min_cycle;Max_cycle;Signal;HPM_P1;HPM_P2
2021/03/03 00:01:05;;;;;;;29.10;17.95;;;10.20;62.50;;;;;;4946808;28;20035;-62
2021/03/03 00:03:31;;;;;;;33.85;19.85;;;10.20;62.60;;;;;;4974892;28;20126;-62
2021/03/03 00:05:56;;;;;;;32.22;19.27;;;10.10;62.50;;;;;;4964333;28;20029;-62
2021/03/03 00:08:22;;;;;;;26.92;16.35;;;10.20;62.70;;;;;;4951676;28;20456;-63
2021/03/03 00:10:47;;;;;;;28.08;16.92;;;10.10;63.10;;;;;;4963383;28;20123;-62
2021/03/03 00:13:13;;;;;;;47.05;19.70;;;10.10;62.60;;;;;;4968917;28;20076;-62
2021/03/03 00:15:39;;;;;;;33.17;19.27;;;10.00;63.00;;;;;;4967556;28;20490;-62
2021/03/03 00:18:04;;;;;;;27.42;16.42;;;10.10;62.70;;;;;;4992810;28;20033;-62
2021/03/03 00:20:30;;;;;;;28.08;16.70;;;10.00;62.80;;;;;;4954403;28;20138;-62
2021/03/03 00:22:56;;;;;;;31.17;17.77;;;10.00;62.90;;;;;;4982973;28;20038;-62
2021/03/03 00:25:21;;;;;;;30.13;15.85;;;10.00;62.90;;;;;;4981142;28;20146;-62
2021/03/03 00:27:47;;;;;;;26.95;17.48;;;9.90;62.80;;;;;;4965611;28;20039;-62
2021/03/03 00:30:17;;;;;;;27.35;15.82;;;9.90;62.90;;;;;;4979490;28;20067;-63
2021/03/03 00:32:43;;;;;;;34.88;17.60;;;9.90;63.40;;;;;;4976546;28;20043;-62
2021/03/03 00:35:09;;;;;;;28.25;16.75;;;9.90;63.00;;;;;;4965722;28;20045;-62
2021/03/03 00:37:35;;;;;;;27.25;16.45;;;9.90;63.20;;;;;;4960424;28;20031;-62
2021/03/03 00:40:02;;;;;;;30.30;18.17;;;9.90;63.20;;;;;;4979317;28;20037;-62
2021/03/03 00:42:28;;;;;;;25.77;15.60;;;9.90;63.20;;;;;;4959598;28;20039;-62
2021/03/03 00:44:53;;;;;;;23.23;14.63;;;9.90;63.50;;;;;;4998032;28;20161;-62
2021/03/03 00:47:19;;;;;;;31.23;17.65;;;9.90;63.40;;;;;;4966865;28;20466;-62
2021/03/03 00:49:45;;;;;;;29.80;16.88;;;9.90;63.50;;;;;;4989731;28;20025;-62
2021/03/03 00:52:10;;;;;;;25.67;16.55;;;9.90;63.70;;;;;;5019376;28;20051;-62
2021/03/03 00:54:36;;;;;;;26.67;16.40;;;9.80;63.60;;;;;;4958069;28;20043;-62
2021/03/03 00:57:01;;;;;;;30.77;17.15;;;9.80;63.60;;;;;;4995304;28;20365;-62
2021/03/03 00:59:27;;;;;;;30.60;18.20;;;9.80;63.60;;;;;;4984071;28;20058;-62
2021/03/03 01:01:53;;;;;;;30.40;16.77;;;9.80;63.60;;;;;;4936034;28;20339;-62
2021/03/03 01:04:18;;;;;;;25.08;15.00;;;9.70;64.00;;;;;;4962291;28;20465;-62
2021/03/03 01:06:44;;;;;;;23.88;14.73;;;9.80;63.60;;;;;;4949919;28;20030;-63
2021/03/03 01:09:09;;;;;;;27.63;16.85;;;9.70;63.50;;;;;;4954602;28;20038;-63
2021/03/03 01:11:35;;;;;;;29.60;15.02;;;9.70;63.50;;;;;;4982098;28;20043;-62
2021/03/03 01:14:01;;;;;;;26.08;15.20;;;9.70;63.50;;;;;;4966115;28;20345;-62
2021/03/03 01:16:27;;;;;;;29.17;17.52;;;9.70;63.60;;;;;;4970257;28;20027;-62
2021/03/03 01:18:52;;;;;;;28.00;16.13;;;9.70;63.70;;;;;;4970710;28;20031;-62
2021/03/03 01:21:18;;;;;;;28.85;15.63;;;9.70;63.70;;;;;;4978671;28;20042;-62
2021/03/03 01:23:43;;;;;;;30.02;15.93;;;9.60;63.60;;;;;;4965870;28;21904;-62
2021/03/03 01:26:09;;;;;;;24.83;14.75;;;9.60;63.60;;;;;;4955938;28;20066;-62
2021/03/03 01:28:35;;;;;;;30.98;15.07;;;9.60;63.70;;;;;;4966992;28;20124;-62
2021/03/03 01:31:00;;;;;;;28.23;15.43;;;9.60;63.80;;;;;;4972708;28;20035;-62
2021/03/03 01:33:31;;;;;;;30.45;16.30;;;9.60;63.80;;;;;;5011679;28;20058;-62
2021/03/03 01:35:57;;;;;;;29.45;17.42;;;9.50;63.80;;;;;;4960540;28;20035;-62
2021/03/03 01:38:23;;;;;;;33.72;15.93;;;9.50;63.80;;;;;;5016401;28;20032;-62
2021/03/03 01:40:50;;;;;;;25.48;15.40;;;9.40;63.70;;;;;;4961918;28;20055;-62
2021/03/03 01:43:16;;;;;;;36.30;16.40;;;9.40;63.80;;;;;;4973435;28;20573;-62
2021/03/03 01:45:41;;;;;;;24.60;16.15;;;9.40;63.80;;;;;;4990801;28;20029;-62
2021/03/03 01:48:08;;;;;;;25.38;15.52;;;9.40;63.90;;;;;;5028502;28;20063;-62
2021/03/03 01:50:34;;;;;;;27.55;15.48;;;9.40;64.00;;;;;;4966273;28;20032;-62
2021/03/03 01:53:01;;;;;;;25.70;15.85;;;9.40;64.10;;;;;;4956327;28;20381;-62
2021/03/03 01:55:27;;;;;;;25.50;13.38;;;9.30;64.10;;;;;;5017482;28;20429;-62
2021/03/03 01:57:52;;;;;;;29.10;15.77;;;9.30;64.20;;;;;;4962189;28;20054;-62
2021/03/03 02:00:19;;;;;;;28.02;15.40;;;9.30;64.20;;;;;;4954631;28;20032;-63
2021/03/03 02:02:45;;;;;;;26.80;16.20;;;9.30;64.10;;;;;;4948925;28;20046;-62
2021/03/03 02:05:11;;;;;;;21.65;13.88;;;9.30;64.20;;;;;;4962345;28;20481;-62
2021/03/03 02:07:59;;;;;;;32.95;18.75;;;9.30;64.30;;;;;;4949321;28;20038;-62
2021/03/03 02:10:42;;;;;;;25.77;16.40;;;9.30;64.30;;;;;;4948360;28;20039;-62
2021/03/03 02:13:17;;;;;;;27.35;16.25;;;9.30;64.30;;;;;;4946846;28;20354;-62
2021/03/03 02:15:45;;;;;;;28.25;16.55;;;9.30;64.50;;;;;;4974788;28;20052;-62
2021/03/03 02:18:11;;;;;;;26.15;16.63;;;9.20;64.60;;;;;;4974142;28;20035;-63
2021/03/03 02:21:01;;;;;;;28.98;15.30;;;9.20;64.70;;;;;;4949542;28;20068;-62
2021/03/03 02:23:57;;;;;;;25.00;14.82;;;9.30;64.70;;;;;;4954704;28;20100;-62
2021/03/03 02:26:33;;;;;;;28.42;16.15;;;9.20;64.70;;;;;;4974093;28;20040;-63
2021/03/03 02:29:05;;;;;;;27.80;16.33;;;9.10;65.00;;;;;;4960202;28;20469;-62
2021/03/03 02:31:33;;;;;;;23.67;14.67;;;9.20;64.40;;;;;;4954986;28;20496;-62
2021/03/03 02:34:00;;;;;;;25.92;15.43;;;9.10;64.40;;;;;;4971930;28;20157;-65
2021/03/03 02:36:26;;;;;;;30.42;15.77;;;9.10;64.50;;;;;;4966223;28;20446;-62
2021/03/03 02:38:52;;;;;;;25.83;16.23;;;9.00;64.90;;;;;;4991378;28;20501;-63
2021/03/03 02:41:19;;;;;;;27.85;17.38;;;9.10;64.70;;;;;;4946061;28;20067;-62
2021/03/03 02:43:45;;;;;;;25.67;15.00;;;9.00;64.60;;;;;;4983194;28;20069;-62
2021/03/03 02:46:12;;;;;;;25.50;14.77;;;9.00;64.50;;;;;;4952490;28;20116;-62
2021/03/03 02:48:38;;;;;;;29.50;14.70;;;9.00;64.50;;;;;;4965228;28;20040;-62
2021/03/03 02:51:05;;;;;;;28.25;15.88;;;9.00;64.50;;;;;;5025922;28;20453;-62
2021/03/03 02:53:31;;;;;;;26.25;13.80;;;9.00;64.50;;;;;;4979120;28;20037;-62
2021/03/03 02:55:56;;;;;;;31.38;14.90;;;9.00;64.60;;;;;;4981620;28;20035;-62
2021/03/03 02:58:22;;;;;;;25.55;15.88;;;8.90;64.60;;;;;;4948557;28;20459;-62
2021/03/03 03:00:53;;;;;;;28.35;16.58;;;8.90;64.70;;;;;;5003785;28;20031;-63
2021/03/03 03:03:26;;;;;;;32.92;15.25;;;8.90;64.70;;;;;;4995198;28;20111;-62
2021/03/03 03:06:20;;;;;;;34.63;14.45;;;8.90;64.70;;;;;;4960999;28;20117;-62
2021/03/03 03:08:47;;;;;;;24.30;13.90;;;8.90;64.80;;;;;;4969531;28;20063;-62
2021/03/03 03:11:19;;;;;;;27.75;13.55;;;8.90;64.60;;;;;;4964345;28;20038;-62
2021/03/03 03:13:48;;;;;;;27.63;14.88;;;8.80;64.70;;;;;;4952887;28;20465;-62
2021/03/03 03:16:15;;;;;;;28.15;14.52;;;8.80;64.80;;;;;;5033253;28;20025;-62
2021/03/03 03:18:46;;;;;;;28.05;14.85;;;8.80;64.60;;;;;;5013669;28;20065;-63
2021/03/03 03:21:15;;;;;;;29.25;17.23;;;8.80;64.90;;;;;;4956435;28;20031;-62
2021/03/03 03:23:41;;;;;;;28.48;15.18;;;8.80;64.90;;;;;;4964246;28;20029;-62
2021/03/03 03:26:08;;;;;;;25.90;13.63;;;8.80;65.00;;;;;;4974797;28;20043;-62
2021/03/03 03:28:40;;;;;;;24.67;15.38;;;8.70;65.00;;;;;;4990903;28;20070;-62
2021/03/03 03:31:08;;;;;;;24.90;14.43;;;8.70;65.00;;;;;;4940835;28;20106;-61
2021/03/03 03:33:34;;;;;;;30.38;17.27;;;8.70;65.60;;;;;;4957995;28;20028;-62
2021/03/03 03:36:02;;;;;;;23.35;13.93;;;8.70;65.00;;;;;;4973456;28;20031;-62
2021/03/03 03:38:29;;;;;;;24.48;12.98;;;8.60;65.40;;;;;;4954544;28;20534;-62
2021/03/03 03:40:56;;;;;;;25.75;15.32;;;8.70;65.00;;;;;;4947340;28;20333;-61
2021/03/03 03:43:23;;;;;;;25.88;15.00;;;8.70;65.00;;;;;;4965750;28;20031;-62
2021/03/03 03:45:49;;;;;;;27.95;14.80;;;8.70;65.00;;;;;;5028954;28;20063;-62
2021/03/03 03:48:16;;;;;;;26.95;14.00;;;8.60;65.40;;;;;;4969110;28;20058;-62
2021/03/03 03:50:42;;;;;;;24.38;14.25;;;8.60;65.00;;;;;;4940858;28;20059;-62
2021/03/03 03:53:08;;;;;;;26.08;14.45;;;8.50;65.40;;;;;;4997192;28;20105;-62
2021/03/03 03:55:36;;;;;;;24.83;13.40;;;8.50;65.50;;;;;;4984742;28;20043;-61
2021/03/03 03:58:02;;;;;;;25.10;15.77;;;8.50;65.10;;;;;;4948880;28;20065;-61
2021/03/03 04:00:29;;;;;;;23.85;14.30;;;8.50;65.50;;;;;;5002890;28;20029;-62
2021/03/03 04:02:55;;;;;;;21.73;14.18;;;8.50;65.60;;;;;;4995016;28;20139;-62
2021/03/03 04:05:21;;;;;;;27.88;13.90;;;8.50;65.30;;;;;;4950848;28;20412;-61
2021/03/03 04:07:46;;;;;;;26.13;13.80;;;8.40;65.70;;;;;;4979613;28;20031;-62
2021/03/03 04:10:15;;;;;;;24.17;13.18;;;8.40;65.40;;;;;;4967668;28;20412;-61
2021/03/03 04:12:41;;;;;;;24.27;15.65;;;8.40;65.80;;;;;;4967413;28;20035;-61
2021/03/03 04:15:08;;;;;;;28.75;16.58;;;8.40;65.70;;;;;;4989383;28;20454;-61
2021/03/03 04:17:35;;;;;;;23.92;15.25;;;8.40;65.80;;;;;;4996710;28;20380;-62
2021/03/03 04:20:00;;;;;;;29.67;16.65;;;8.40;65.80;;;;;;4957379;28;20500;-61
2021/03/03 04:22:27;;;;;;;24.67;15.32;;;8.40;65.50;;;;;;4952553;28;20157;-62
2021/03/03 04:24:52;;;;;;;27.70;14.45;;;8.40;66.00;;;;;;4960367;28;20114;-61
2021/03/03 04:27:18;;;;;;;26.70;15.63;;;8.40;65.90;;;;;;4973971;28;20529;-61
2021/03/03 04:29:44;;;;;;;28.00;16.08;;;8.40;65.50;;;;;;4956679;28;20480;-61
2021/03/03 04:32:09;;;;;;;24.85;15.20;;;8.40;66.00;;;;;;4955360;28;20039;-61
2021/03/03 04:34:35;;;;;;;25.13;14.10;;;8.40;65.40;;;;;;4967990;28;20054;-62
2021/03/03 04:37:01;;;;;;;25.38;15.15;;;8.40;65.90;;;;;;4988689;28;20054;-61
2021/03/03 04:39:26;;;;;;;24.67;14.45;;;8.40;65.90;;;;;;4971638;28;20043;-62
2021/03/03 04:41:52;;;;;;;30.75;15.65;;;8.40;65.80;;;;;;4968074;28;20055;-61
2021/03/03 04:44:18;;;;;;;26.85;15.10;;;8.40;66.00;;;;;;4975474;28;20494;-61
2021/03/03 04:46:43;;;;;;;26.35;14.55;;;8.40;65.80;;;;;;4966546;28;20038;-62
2021/03/03 04:49:09;;;;;;;26.00;14.27;;;8.40;66.20;;;;;;4993498;28;20095;-61
2021/03/03 04:51:35;;;;;;;26.33;14.95;;;8.50;65.80;;;;;;4996735;28;20040;-61
2021/03/03 04:54:02;;;;;;;27.77;14.73;;;8.40;66.30;;;;;;4978585;28;20035;-61
2021/03/03 04:56:28;;;;;;;25.88;14.55;;;8.40;66.30;;;;;;4951376;28;20086;-62
2021/03/03 04:58:53;;;;;;;24.75;15.68;;;8.40;65.80;;;;;;4964983;28;20058;-62
2021/03/03 05:01:19;;;;;;;28.30;15.45;;;8.40;65.90;;;;;;4951414;28;20791;-61
2021/03/03 05:03:45;;;;;;;26.60;13.95;;;8.40;66.40;;;;;;5019113;28;20037;-62
2021/03/03 05:06:10;;;;;;;26.98;15.70;;;8.40;66.00;;;;;;4994060;28;20085;-61
2021/03/03 05:08:36;;;;;;;27.00;15.50;;;8.40;66.50;;;;;;4949983;28;20039;-62
2021/03/03 05:11:02;;;;;;;27.27;13.98;;;8.40;66.00;;;;;;4950423;28;20032;-61
2021/03/03 05:13:27;;;;;;;32.22;14.80;;;8.30;66.40;;;;;;4990794;28;20491;-62
2021/03/03 05:15:53;;;;;;;23.63;14.05;;;8.40;66.20;;;;;;4949921;28;20032;-62
2021/03/03 05:18:19;;;;;;;35.65;15.52;;;8.40;66.20;;;;;;4952306;28;20389;-62
2021/03/03 05:20:44;;;;;;;24.77;14.15;;;8.40;66.20;;;;;;4949117;28;20118;-62
2021/03/03 05:23:10;;;;;;;22.45;14.55;;;8.40;66.70;;;;;;4962480;28;20027;-61
2021/03/03 05:25:37;;;;;;;28.45;15.15;;;8.40;66.30;;;;;;4938269;28;20062;-62
2021/03/03 05:28:03;;;;;;;27.98;16.15;;;8.40;66.30;;;;;;4978512;28;20058;-62
2021/03/03 05:30:29;;;;;;;24.88;14.63;;;8.40;66.30;;;;;;4950206;28;20104;-62
2021/03/03 05:32:54;;;;;;;23.60;14.52;;;8.40;66.40;;;;;;4962109;28;20192;-61
2021/03/03 05:35:20;;;;;;;26.27;14.70;;;8.30;66.80;;;;;;4949267;28;20039;-61
2021/03/03 05:37:46;;;;;;;24.15;13.95;;;8.40;66.30;;;;;;4943100;28;20036;-62
2021/03/03 05:40:13;;;;;;;25.67;14.88;;;8.40;66.30;;;;;;4948902;28;20389;-61
2021/03/03 05:42:39;;;;;;;25.70;14.32;;;8.30;66.20;;;;;;5002177;28;20093;-62
2021/03/03 05:45:06;;;;;;;24.30;13.77;;;8.30;66.30;;;;;;4949228;29;20035;-61
2021/03/03 05:47:37;;;;;;;25.45;14.30;;;8.30;66.70;;;;;;4947920;28;20138;-63
2021/03/03 05:50:05;;;;;;;24.13;13.82;;;8.20;66.70;;;;;;4942768;28;20023;-62
2021/03/03 05:52:34;;;;;;;27.40;16.40;;;8.30;66.80;;;;;;4974533;28;20033;-62
2021/03/03 05:55:04;;;;;;;25.38;14.60;;;8.30;66.40;;;;;;5010215;28;20042;-61
2021/03/03 05:57:32;;;;;;;25.45;14.88;;;8.20;66.80;;;;;;4949817;28;20023;-61
2021/03/03 06:00:00;;;;;;;25.85;16.10;;;8.20;66.80;;;;;;4964342;28;20392;-62
2021/03/03 06:02:26;;;;;;;31.85;15.48;;;8.30;66.40;;;;;;4944794;28;20355;-61
2021/03/03 06:04:52;;;;;;;25.80;15.77;;;8.30;66.40;;;;;;4944509;29;20039;-62
2021/03/03 06:07:20;;;;;;;26.70;15.23;;;8.30;66.60;;;;;;4943842;28;20027;-62
2021/03/03 06:09:46;;;;;;;28.67;16.33;;;8.20;66.70;;;;;;4949584;29;20042;-62
2021/03/03 06:12:12;;;;;;;24.85;14.25;;;8.20;66.60;;;;;;4966213;28;20021;-61
2021/03/03 06:14:39;;;;;;;24.45;14.52;;;8.20;67.10;;;;;;4941241;28;20027;-61
2021/03/03 06:17:05;;;;;;;25.88;15.93;;;8.20;67.00;;;;;;4946179;28;20404;-61
2021/03/03 06:19:31;;;;;;;21.23;13.05;;;8.20;67.10;;;;;;4945888;28;20480;-62
2021/03/03 06:22:20;;;;;;;26.38;16.33;;;8.30;66.70;;;;;;4965487;28;20462;-62
2021/03/03 06:24:46;;;;;;;26.77;13.18;;;8.30;66.70;;;;;;4949660;28;20073;-62
2021/03/03 06:27:12;;;;;;;22.58;13.98;;;8.20;67.10;;;;;;4985804;28;20143;-62
2021/03/03 06:29:38;;;;;;;25.60;15.85;;;8.30;66.80;;;;;;5013609;28;20062;-62
2021/03/03 06:32:04;;;;;;;24.20;14.67;;;8.20;67.20;;;;;;5009242;28;20110;-62
2021/03/03 06:34:30;;;;;;;25.40;14.50;;;8.30;67.20;;;;;;5006299;28;20456;-61
2021/03/03 06:36:56;;;;;;;26.83;14.63;;;8.30;67.40;;;;;;4940558;28;20035;-62
2021/03/03 06:39:21;;;;;;;25.02;15.20;;;8.20;67.40;;;;;;4964351;28;20032;-61
2021/03/03 06:41:49;;;;;;;26.90;15.38;;;8.30;67.00;;;;;;4952556;28;20110;-63
2021/03/03 06:44:15;;;;;;;26.02;14.60;;;8.40;67.00;;;;;;5024016;28;20073;-63
2021/03/03 06:46:41;;;;;;;23.40;13.80;;;8.30;67.40;;;;;;4963834;28;20035;-63
2021/03/03 06:49:23;;;;;;;23.77;14.70;;;8.40;67.10;;;;;;4950150;28;20463;-63
2021/03/03 06:51:50;;;;;;;24.05;15.02;;;8.30;67.50;;;;;;4955560;28;20046;-63
2021/03/03 06:54:21;;;;;;;24.55;16.15;;;8.40;67.20;;;;;;5004663;28;20362;-62
2021/03/03 06:56:49;;;;;;;26.95;16.23;;;8.40;67.60;;;;;;4948420;28;20038;-63
2021/03/03 06:59:15;;;;;;;26.75;15.00;;;8.40;67.60;;;;;;4979139;28;20119;-62
2021/03/03 07:01:42;;;;;;;26.55;15.18;;;8.60;67.00;;;;;;4962380;28;20533;-62
2021/03/03 07:04:24;;;;;;;28.75;14.73;;;8.50;67.40;;;;;;4955170;28;20587;-63
2021/03/03 07:06:51;;;;;;;27.17;15.07;;;8.50;67.40;;;;;;4947765;28;20024;-63
2021/03/03 07:09:17;;;;;;;29.35;15.90;;;8.60;67.40;;;;;;4955462;28;20477;-62
2021/03/03 07:11:44;;;;;;;30.60;17.58;;;8.80;66.90;;;;;;5045024;28;20512;-62
2021/03/03 07:14:20;;;;;;;30.42;17.38;;;8.90;66.90;;;;;;4954240;28;20065;-62
2021/03/03 07:17:06;;;;;;;26.65;16.75;;;8.90;66.80;;;;;;4929181;28;20035;-62
2021/03/03 07:19:33;;;;;;;26.95;16.25;;;8.90;67.30;;;;;;4953822;28;20512;-62
2021/03/03 07:21:59;;;;;;;30.17;18.90;;;9.20;66.70;;;;;;4952836;28;20131;-62
2021/03/03 07:24:25;;;;;;;31.40;18.65;;;9.40;66.60;;;;;;4991758;28;20056;-63
2021/03/03 07:26:51;;;;;;;29.08;17.95;;;9.60;66.40;;;;;;4953778;28;20088;-62
2021/03/03 07:29:17;;;;;;;29.73;17.35;;;9.50;66.70;;;;;;4939119;28;20571;-62
2021/03/03 07:31:44;;;;;;;30.17;18.73;;;9.70;66.50;;;;;;4941276;28;20089;-62
2021/03/03 07:34:10;;;;;;;31.08;18.17;;;9.90;66.30;;;;;;4948697;28;20520;-63
2021/03/03 07:36:37;;;;;;;28.52;19.42;;;10.20;65.50;;;;;;4950480;29;20460;-63
2021/03/03 07:39:08;;;;;;;30.15;19.25;;;10.20;65.90;;;;;;4951371;28;20081;-62
2021/03/03 07:41:45;;;;;;;33.65;19.45;;;10.60;65.10;;;;;;4952118;28;20028;-62
2021/03/03 07:44:15;;;;;;;27.67;18.33;;;10.50;65.50;;;;;;4944126;28;20081;-62
2021/03/03 07:46:42;;;;;;;30.92;19.58;;;11.10;64.90;;;;;;4949491;28;20039;-62
2021/03/03 07:49:13;;;;;;;34.83;22.23;;;11.40;64.60;;;;;;4946769;28;20137;-63
2021/03/03 07:51:41;;;;;;;32.60;19.48;;;11.60;64.30;;;;;;4942430;28;20020;-64
2021/03/03 07:54:11;;;;;;;30.85;20.13;;;12.00;63.50;;;;;;4931522;28;20113;-63
2021/03/03 07:56:38;;;;;;;31.98;19.63;;;12.40;62.70;;;;;;4966129;28;20162;-64
2021/03/03 07:59:08;;;;;;;30.65;18.08;;;12.60;61.90;;;;;;4948613;28;20062;-63
2021/03/03 08:01:34;;;;;;;34.75;19.23;;;13.00;61.30;;;;;;4947548;28;20034;-63
2021/03/03 08:04:00;;;;;;;32.53;19.83;;;13.40;60.60;;;;;;4949952;28;20097;-63
2021/03/03 08:06:39;;;;;;;31.45;19.30;;;13.80;59.20;;;;;;4943829;28;20458;-63
2021/03/03 08:09:09;;;;;;;32.50;18.73;;;14.10;57.60;;;;;;4962434;28;20045;-63
2021/03/03 08:11:43;;;;;;;28.17;17.98;;;14.40;56.80;;;;;;4946549;28;20027;-63
2021/03/03 08:14:31;;;;;;;32.85;18.83;;;14.90;55.40;;;;;;4952810;28;20047;-63
2021/03/03 08:17:07;;;;;;;34.35;20.52;;;15.70;53.50;;;;;;4950631;28;20036;-63
2021/03/03 08:19:58;;;;;;;32.60;20.10;;;16.30;52.10;;;;;;4950316;28;20027;-63
2021/03/03 08:22:50;;;;;;;32.80;21.40;;;16.90;50.20;;;;;;4945827;28;20465;-63
2021/03/03 08:25:40;;;;;;;39.92;23.85;;;17.40;48.60;;;;;;4936679;28;20133;-64
2021/03/03 08:28:25;;;;;;;32.15;22.83;;;17.90;47.20;;;;;;4950722;28;20038;-63
2021/03/03 08:31:10;;;;;;;39.38;22.77;;;17.90;47.60;;;;;;4948319;29;20088;-64
2021/03/03 08:33:54;;;;;;;33.25;22.35;;;17.50;47.90;;;;;;4950465;28;20035;-64
2021/03/03 08:36:24;;;;;;;30.83;22.42;;;17.00;48.40;;;;;;4932033;29;20035;-63
2021/03/03 08:38:56;;;;;;;33.95;22.65;;;16.60;49.60;;;;;;4959178;28;20027;-63
2021/03/03 08:41:30;;;;;;;36.08;25.08;;;16.20;50.20;;;;;;4933837;29;20032;-62
2021/03/03 08:44:04;;;;;;;39.78;24.90;;;16.00;51.00;;;;;;4947583;28;20488;-63
2021/03/03 08:46:29;;;;;;;35.30;24.13;;;15.60;51.60;;;;;;4949281;29;20045;-63
2021/03/03 08:48:55;;;;;;;41.67;25.20;;;15.40;52.10;;;;;;4949031;28;20578;-63
2021/03/03 08:51:28;;;;;;;33.05;23.73;;;15.20;52.60;;;;;;4949178;28;20434;-63
2021/03/03 08:54:05;;;;;;;36.35;24.67;;;15.20;52.90;;;;;;4931109;29;20035;-63
2021/03/03 08:56:34;;;;;;;36.22;24.25;;;15.10;53.30;;;;;;4935195;28;20099;-63
2021/03/03 08:59:10;;;;;;;39.67;26.77;;;15.00;53.80;;;;;;4946958;28;20130;-63
2021/03/03 09:01:57;;;;;;;38.20;23.98;;;14.90;53.90;;;;;;4945130;29;20028;-63
2021/03/03 09:04:31;;;;;;;36.25;25.05;;;14.80;54.30;;;;;;4964065;28;20126;-63
2021/03/03 09:07:00;;;;;;;38.10;26.42;;;14.80;54.30;;;;;;4955061;28;20084;-63
2021/03/03 09:09:27;;;;;;;39.40;26.65;;;15.00;54.00;;;;;;4988442;28;20557;-63
2021/03/03 09:12:02;;;;;;;35.30;25.15;;;15.00;54.00;;;;;;5008027;28;20057;-63
2021/03/03 09:14:28;;;;;;;36.13;25.35;;;14.90;54.20;;;;;;4948864;28;20108;-63
2021/03/03 09:17:02;;;;;;;34.10;24.90;;;14.70;54.50;;;;;;4964144;28;20043;-63
2021/03/03 09:19:29;;;;;;;32.80;21.55;;;14.80;54.90;;;;;;5009591;28;20415;-63
2021/03/03 09:21:55;;;;;;;33.88;24.15;;;15.00;54.80;;;;;;5017812;28;20025;-63
2021/03/03 09:24:21;;;;;;;31.15;22.42;;;15.30;54.40;;;;;;4954871;28;20038;-64
2021/03/03 09:26:47;;;;;;;35.30;24.63;;;15.70;53.80;;;;;;4969538;28;20031;-63
2021/03/03 09:29:34;;;;;;;34.95;25.17;;;16.20;53.00;;;;;;4945557;28;20118;-63
2021/03/03 09:32:11;;;;;;;36.90;24.45;;;16.70;51.40;;;;;;4946292;29;20481;-63
2021/03/03 09:35:04;;;;;;;39.10;27.63;;;17.10;50.40;;;;;;4948127;28;20043;-64
2021/03/03 09:37:39;;;;;;;40.53;26.48;;;17.40;49.80;;;;;;4937672;28;20501;-63
2021/03/03 09:40:07;;;;;;;39.10;30.98;;;17.80;49.70;;;;;;4946014;28;20114;-63
2021/03/03 09:42:41;;;;;;;34.20;24.10;;;18.40;49.00;;;;;;4945199;28;20090;-64
2021/03/03 09:45:09;;;;;;;30.77;22.52;;;18.90;48.10;;;;;;4939946;29;20061;-64
2021/03/03 09:47:39;;;;;;;34.33;26.05;;;19.30;45.80;;;;;;4949496;28;20118;-64
2021/03/03 09:50:14;;;;;;;32.92;23.70;;;19.60;45.50;;;;;;4943364;28;20269;-64
2021/03/03 09:52:40;;;;;;;36.42;24.60;;;19.80;44.90;;;;;;4945152;28;20400;-63
2021/03/03 09:55:14;;;;;;;38.30;25.15;;;19.80;44.70;;;;;;4959897;28;20055;-65
2021/03/03 09:57:41;;;;;;;32.17;23.15;;;19.50;44.90;;;;;;4946226;28;20774;-64
2021/03/03 10:00:14;;;;;;;34.17;23.15;;;19.00;45.70;;;;;;4944663;28;20035;-64
2021/03/03 10:02:48;;;;;;;37.63;25.02;;;18.60;46.70;;;;;;4949289;28;20039;-63
2021/03/03 10:05:23;;;;;;;41.13;26.70;;;18.10;47.50;;;;;;4944607;28;20035;-63
2021/03/03 10:07:50;;;;;;;35.40;24.80;;;17.60;48.70;;;;;;4946861;28;20053;-63
2021/03/03 10:10:17;;;;;;;32.33;23.30;;;17.30;49.50;;;;;;4982221;28;20116;-63
2021/03/03 10:12:43;;;;;;;36.25;24.52;;;17.10;50.30;;;;;;4954153;28;20105;-64
2021/03/03 10:15:13;;;;;;;37.92;26.42;;;17.00;50.80;;;;;;4949107;28;20035;-63
2021/03/03 10:17:41;;;;;;;35.35;25.30;;;16.90;50.80;;;;;;4977768;28;20039;-64
2021/03/03 10:20:30;;;;;;;34.53;25.77;;;16.90;51.30;;;;;;4989050;28;20039;-64
2021/03/03 10:22:57;;;;;;;40.35;27.67;;;16.90;51.50;;;;;;4944982;28;20357;-64
2021/03/03 10:25:35;;;;;;;39.10;26.45;;;16.90;51.70;;;;;;4960366;28;20035;-64
2021/03/03 10:28:08;;;;;;;35.15;25.65;;;16.90;51.80;;;;;;4955124;28;20051;-64
2021/03/03 10:30:36;;;;;;;38.75;25.80;;;16.70;51.90;;;;;;5031626;28;20098;-64
2021/03/03 10:33:02;;;;;;;37.80;27.45;;;16.50;52.20;;;;;;4966256;28;20063;-64
2021/03/03 10:35:30;;;;;;;42.35;29.40;;;16.30;52.70;;;;;;5019106;28;20095;-64
2021/03/03 10:38:13;;;;;;;34.63;26.52;;;16.00;53.20;;;;;;4978986;28;20079;-64
2021/03/03 10:40:41;;;;;;;36.80;27.65;;;16.00;53.60;;;;;;4983976;28;20087;-63
2021/03/03 10:43:08;;;;;;;38.45;27.58;;;16.10;53.90;;;;;;4959662;28;20031;-63
2021/03/03 10:45:34;;;;;;;42.92;29.42;;;16.10;53.80;;;;;;5021618;28;20021;-64
2021/03/03 10:47:59;;;;;;;42.33;30.00;;;16.20;53.70;;;;;;4964399;28;20574;-64
2021/03/03 10:50:25;;;;;;;39.60;29.48;;;16.30;53.70;;;;;;4956003;28;20136;-64
2021/03/03 10:52:59;;;;;;;38.88;27.73;;;16.40;53.70;;;;;;4948060;28;20163;-64
2021/03/03 10:55:36;;;;;;;39.85;28.83;;;16.50;53.70;;;;;;5033831;28;20025;-64
2021/03/03 10:58:18;;;;;;;44.55;29.20;;;16.60;53.70;;;;;;4970969;28;20080;-64
2021/03/03 11:00:57;;;;;;;37.58;29.08;;;16.60;53.70;;;;;;4961308;28;20052;-63
2021/03/03 11:03:24;;;;;;;53.22;32.58;;;16.90;53.40;;;;;;4984470;28;20450;-64
2021/03/03 11:05:54;;;;;;;40.72;28.75;;;17.40;52.80;;;;;;4948041;28;20031;-64
2021/03/03 11:08:21;;;;;;;45.30;31.90;;;18.10;51.30;;;;;;5010963;28;20036;-64
2021/03/03 11:10:47;;;;;;;49.15;32.95;;;18.40;49.80;;;;;;4964467;28;20489;-64
2021/03/03 11:13:14;;;;;;;46.60;35.00;;;18.30;49.90;;;;;;4969061;28;20031;-64
2021/03/03 11:15:41;;;;;;;39.90;30.92;;;18.40;50.00;;;;;;4947880;28;20449;-64
2021/03/03 11:18:11;;;;;;;42.85;31.65;;;19.00;49.70;;;;;;4954874;28;20489;-64
2021/03/03 11:20:38;;;;;;;46.15;32.42;;;20.20;47.00;;;;;;5015841;28;20094;-64
2021/03/03 11:23:04;;;;;;;45.80;35.47;;;21.30;44.60;;;;;;4973999;28;20031;-64
2021/03/03 11:25:31;;;;;;;47.53;39.03;;;22.40;42.40;;;;;;4951092;28;20535;-64
2021/03/03 11:27:56;;;;;;;45.00;32.30;;;23.00;40.60;;;;;;4961944;28;20040;-65
2021/03/03 11:30:22;;;;;;;50.05;35.00;;;23.30;40.30;;;;;;4950697;28;20035;-63
2021/03/03 11:32:50;;;;;;;45.53;34.47;;;23.60;40.30;;;;;;4965621;28;20450;-64
2021/03/03 11:35:16;;;;;;;43.53;32.85;;;24.00;39.60;;;;;;4994584;28;20461;-64
2021/03/03 11:37:42;;;;;;;46.15;34.83;;;24.40;38.80;;;;;;4963171;28;20088;-64
2021/03/03 11:40:08;;;;;;;44.80;33.38;;;24.40;38.00;;;;;;4946218;28;20062;-64
2021/03/03 11:42:33;;;;;;;43.30;32.13;;;24.30;38.10;;;;;;4941085;28;20054;-64
2021/03/03 11:44:59;;;;;;;39.92;32.40;;;24.20;38.40;;;;;;4967960;28;20418;-64
2021/03/03 11:47:25;;;;;;;45.13;33.20;;;24.10;38.10;;;;;;4953835;28;20071;-64
2021/03/03 11:49:50;;;;;;;45.42;34.10;;;23.90;38.50;;;;;;4956021;28;20079;-64
2021/03/03 11:52:16;;;;;;;43.72;33.72;;;23.50;39.40;;;;;;4951522;28;20041;-64
2021/03/03 11:54:42;;;;;;;43.58;32.50;;;23.20;40.40;;;;;;5010129;28;20140;-64
2021/03/03 11:57:07;;;;;;;43.90;34.42;;;22.70;40.60;;;;;;5004340;28;20465;-64
2021/03/03 11:59:33;;;;;;;45.97;35.05;;;22.30;41.40;;;;;;4995412;28;20042;-64
2021/03/03 12:01:59;;;;;;;50.40;38.47;;;22.00;41.90;;;;;;4963903;28;20477;-64
2021/03/03 12:04:25;;;;;;;50.30;39.60;;;21.60;42.10;;;;;;5005587;28;20118;-63
2021/03/03 12:06:51;;;;;;;51.97;38.28;;;21.00;42.90;;;;;;4954380;28;20150;-63
2021/03/03 12:09:16;;;;;;;47.10;35.83;;;20.50;44.30;;;;;;4945035;28;20043;-63
2021/03/03 12:11:43;;;;;;;42.70;34.78;;;20.30;45.10;;;;;;4945740;28;20096;-63
2021/03/03 12:14:09;;;;;;;54.25;40.78;;;20.20;45.00;;;;;;4948858;28;20043;-63
2021/03/03 12:16:34;;;;;;;54.67;41.05;;;20.00;45.00;;;;;;4950751;28;20031;-63
2021/03/03 12:19:00;;;;;;;51.47;40.22;;;19.70;45.80;;;;;;4950286;28;20465;-63
2021/03/03 12:21:26;;;;;;;51.85;39.42;;;19.60;46.10;;;;;;4952808;28;20527;-62
2021/03/03 12:23:51;;;;;;;59.85;42.75;;;19.60;46.30;;;;;;4946200;28;20044;-62
2021/03/03 12:26:17;;;;;;;62.63;43.25;;;19.80;46.20;;;;;;4955305;28;20121;-62
2021/03/03 12:28:42;;;;;;;60.78;40.65;;;19.70;45.90;;;;;;4950303;28;20039;-62
2021/03/03 12:31:10;;;;;;;60.47;43.30;;;19.70;45.80;;;;;;4950754;28;20486;-62
2021/03/03 12:33:35;;;;;;;56.83;41.83;;;19.80;45.90;;;;;;4961733;28;20089;-63
2021/03/03 12:36:01;;;;;;;53.55;41.08;;;19.80;45.70;;;;;;4949907;28;20732;-63
2021/03/03 12:38:27;;;;;;;61.63;44.47;;;19.80;45.50;;;;;;4950774;28;20035;-63
2021/03/03 12:40:52;;;;;;;55.60;40.40;;;19.80;45.40;;;;;;4978802;28;20346;-62